createdAt,value
2023-01-11T00:00:55.733Z,71.30
2023-01-11T00:03:23.244Z,71.24
2023-01-11T00:05:50.900Z,71.68
2023-01-11T00:08:19.356Z,71.06
2023-01-11T00:10:47.223Z,71.74
2023-01-11T00:13:15.580Z,71.55
2023-01-11T00:15:43.476Z,71.67
2023-01-11T00:18:11.176Z,71.38
2023-01-11T00:20:39.827Z,71.05
2023-01-11T00:23:07.685Z,71.23
2023-01-11T00:25:35.621Z,70.97
2023-01-11T00:28:03.363Z,71.56
2023-01-11T00:30:31.114Z,71.38
2023-01-11T00:33:00.883Z,71.20
2023-01-11T00:35:29.813Z,71.29
2023-01-11T00:37:57.635Z,71.71
2023-01-11T00:40:29.426Z,71.70
2023-01-11T00:43:15.557Z,71.87
2023-01-11T00:46:01.688Z,71.78
2023-01-11T00:48:29.580Z,72.02
2023-01-11T00:50:57.400Z,72.49
2023-01-11T00:53:25.043Z,72.18
2023-01-11T00:55:52.852Z,72.31
2023-01-11T00:58:20.490Z,72.34
2023-01-11T01:00:48.124Z,72.18
2023-01-11T01:03:16.041Z,72.39
2023-01-11T01:05:43.837Z,72.38
2023-01-11T01:08:13.867Z,72.37
2023-01-11T01:10:41.439Z,72.34
2023-01-11T01:13:29.421Z,72.23
2023-01-11T01:15:59.016Z,72.77
2023-01-11T01:18:26.705Z,72.78
2023-01-11T01:20:54.382Z,72.48
2023-01-11T01:23:22.443Z,72.77
2023-01-11T01:25:51.114Z,73.01
2023-01-11T01:28:22.199Z,72.73
2023-01-11T01:30:51.520Z,72.71
2023-01-11T01:33:19.462Z,72.85
2023-01-11T01:35:47.328Z,73.28
2023-01-11T01:38:15.133Z,73.53
2023-01-11T01:40:43.763Z,73.81
2023-01-11T01:43:12.159Z,73.22
2023-01-11T01:45:41.563Z,73.85
2023-01-11T01:48:11.075Z,73.78
2023-01-11T01:50:49.049Z,73.77
2023-01-11T01:53:22.125Z,73.94
2023-01-11T01:55:56.227Z,73.98
2023-01-11T01:58:39.823Z,73.71
2023-01-11T02:01:25.832Z,73.53
2023-01-11T02:03:53.381Z,73.64
2023-01-11T02:06:24.006Z,73.41
2023-01-11T02:08:58.233Z,73.55
2023-01-11T02:11:31.635Z,73.43
2023-01-11T02:14:07.365Z,73.92
2023-01-11T02:16:35.379Z,73.82
2023-01-11T02:19:03.293Z,73.89
2023-01-11T02:21:45.077Z,73.75
2023-01-11T02:24:29.663Z,73.70
2023-01-11T02:27:09.362Z,73.79
2023-01-11T02:29:58.732Z,74.35
2023-01-11T02:32:48.052Z,74.77
2023-01-11T02:35:34.047Z,74.34
2023-01-11T02:38:27.031Z,74.10
2023-01-11T02:40:59.494Z,74.61
2023-01-11T02:43:52.287Z,74.42
2023-01-11T02:46:44.593Z,74.52
2023-01-11T02:49:34.508Z,74.76
2023-01-11T02:52:07.459Z,74.63
2023-01-11T02:54:36.414Z,74.55
2023-01-11T02:57:03.949Z,74.49
2023-01-11T02:59:32.720Z,75.05
2023-01-11T03:02:01.017Z,75.15
2023-01-11T03:04:36.601Z,74.69
2023-01-11T03:07:07.347Z,74.89
2023-01-11T03:10:13.778Z,74.90
2023-01-11T03:13:18.844Z,74.55
2023-01-11T03:15:50.934Z,74.82
2023-01-11T03:18:30.011Z,74.59
2023-01-11T03:21:06.008Z,74.87
2023-01-11T03:23:48.330Z,75.16
2023-01-11T03:26:30.010Z,75.28
2023-01-11T03:29:06.531Z,75.19
2023-01-11T03:31:39.181Z,74.84
2023-01-11T03:34:18.695Z,75.04
2023-01-11T03:36:57.999Z,75.26
2023-01-11T03:39:53.104Z,75.35
2023-01-11T03:42:21.447Z,75.62
2023-01-11T03:44:53.886Z,75.79
2023-01-11T03:47:22.994Z,75.88
2023-01-11T03:49:58.731Z,75.82
2023-01-11T03:52:29.691Z,75.94
2023-01-11T03:54:57.228Z,76.00
2023-01-11T03:57:30.022Z,75.53
2023-01-11T03:59:57.737Z,75.28
2023-01-11T04:02:26.352Z,75.26
2023-01-11T04:04:54.045Z,75.25
2023-01-11T04:07:21.579Z,75.17
2023-01-11T04:09:49.217Z,75.56
2023-01-11T04:12:16.920Z,75.22
2023-01-11T04:14:44.956Z,75.72
2023-01-11T04:17:12.513Z,76.18
2023-01-11T04:19:40.835Z,76.15
2023-01-11T04:22:11.507Z,75.94
2023-01-11T04:24:39.106Z,75.30
2023-01-11T04:27:06.718Z,75.08
2023-01-11T04:29:34.283Z,75.36
2023-01-11T04:32:01.777Z,75.43
2023-01-11T04:34:29.665Z,75.55
2023-01-11T04:36:57.308Z,75.02
2023-01-11T04:39:24.886Z,75.11
2023-01-11T04:42:11.218Z,75.45
2023-01-11T04:44:41.159Z,75.36
2023-01-11T04:47:08.895Z,75.50
2023-01-11T04:49:36.693Z,75.97
2023-01-11T04:52:05.627Z,75.74
2023-01-11T04:54:33.952Z,75.58
2023-01-11T04:57:01.612Z,75.82
2023-01-11T04:59:29.155Z,75.67
2023-01-11T05:01:56.670Z,75.72
2023-01-11T05:04:24.507Z,75.82
2023-01-11T05:06:54.329Z,76.22
2023-01-11T05:09:22.368Z,76.00
2023-01-11T05:11:51.489Z,76.08
2023-01-11T05:14:19.070Z,76.03
2023-01-11T05:16:46.661Z,75.69
2023-01-11T05:19:14.421Z,75.81
2023-01-11T05:21:42.454Z,75.97
2023-01-11T05:24:14.755Z,76.97
2023-01-11T05:26:44.141Z,76.95
2023-01-11T05:29:13.336Z,75.90
2023-01-11T09:48:36.861Z,63.72
2023-01-11T09:51:05.272Z,63.90
2023-01-11T09:53:38.555Z,63.86
2023-01-11T09:56:11.019Z,64.10
2023-01-11T09:58:57.093Z,63.26
2023-01-11T10:01:45.664Z,63.34
2023-01-11T10:04:24.120Z,63.47
2023-01-11T10:07:03.836Z,63.38
2023-01-11T10:18:32.462Z,63.60
2023-01-11T10:19:24.585Z,63.52
2023-01-11T10:21:58.423Z,63.54
2023-01-11T10:24:30.640Z,63.34
2023-01-11T10:26:59.137Z,62.61
2023-01-11T10:29:52.931Z,62.93
2023-01-11T10:32:53.524Z,62.87
2023-01-11T10:36:06.182Z,63.49
2023-01-11T10:38:47.492Z,62.53
2023-01-11T10:41:43.148Z,62.83
2023-01-11T10:44:19.548Z,62.91
2023-01-11T10:46:50.204Z,63.62
2023-01-11T10:49:45.924Z,63.43
2023-01-11T10:52:35.308Z,62.95
2023-01-11T10:55:13.183Z,62.23
2023-01-11T10:58:01.733Z,62.85
2023-01-11T11:00:36.413Z,62.31
2023-01-11T11:03:49.180Z,62.62
2023-01-11T11:06:34.991Z,62.68
2023-01-11T11:09:09.569Z,61.65
2023-01-11T11:12:08.240Z,62.31
2023-01-11T11:14:47.808Z,61.96
2023-01-11T11:17:18.623Z,62.46
2023-01-11T11:19:46.406Z,62.35
2023-01-11T11:22:14.146Z,62.18
2023-01-11T11:24:44.644Z,62.88
2023-01-11T11:27:42.166Z,62.04
2023-01-11T11:30:11.591Z,62.71
2023-01-11T11:32:43.678Z,63.10
2023-01-11T11:36:02.226Z,63.18
2023-01-11T11:42:43.602Z,63.01
2023-01-11T11:45:11.163Z,63.34
2023-01-11T11:47:39.023Z,63.27
2023-01-11T11:50:45.209Z,62.79
2023-01-11T11:53:22.506Z,62.16
2023-01-11T11:55:50.137Z,61.50
2023-01-11T11:58:19.913Z,62.11
2023-01-11T12:00:51.414Z,61.19
2023-01-11T12:03:20.032Z,61.53
2023-01-11T12:06:03.612Z,60.48
2023-01-11T12:08:33.021Z,60.50
2023-01-11T12:11:06.060Z,60.12
2023-01-11T12:13:38.120Z,60.42
2023-01-11T12:16:08.545Z,59.76
2023-01-11T12:18:42.789Z,59.43
2023-01-11T12:21:26.850Z,59.88
2023-01-11T12:24:31.084Z,59.85
2023-01-11T12:27:10.735Z,59.68
2023-01-11T12:29:46.568Z,59.13
2023-01-11T12:32:20.321Z,59.87
2023-01-11T12:35:09.828Z,59.84
2023-01-11T12:37:40.539Z,59.35
2023-01-11T12:40:30.758Z,58.84
2023-01-11T12:43:04.671Z,58.38
2023-01-11T12:45:45.310Z,57.89
2023-01-11T12:48:50.193Z,58.60
2023-01-11T12:51:36.989Z,58.55
2023-01-11T12:54:11.050Z,59.01
2023-01-11T12:56:45.193Z,59.00
2023-01-11T12:59:19.642Z,58.62
2023-01-11T13:02:07.448Z,58.17
2023-01-11T13:05:00.257Z,58.75
2023-01-11T13:07:49.342Z,58.63
2023-01-11T13:10:26.867Z,58.32
2023-01-11T13:13:18.868Z,58.34
2023-01-11T13:15:49.318Z,58.66
2023-01-11T13:18:34.096Z,59.65
2023-01-11T13:21:28.901Z,60.59
2023-01-11T13:23:58.358Z,61.43
2023-01-11T13:26:32.446Z,62.22
2023-01-11T13:29:04.010Z,63.54
2023-01-11T13:31:33.756Z,63.55
2023-01-11T13:34:14.589Z,64.72
2023-01-11T13:36:49.308Z,64.81
2023-01-11T13:39:24.174Z,65.25
2023-01-11T13:41:54.097Z,66.50
2023-01-11T13:44:23.030Z,66.67
2023-01-11T13:46:54.111Z,66.58
2023-01-11T13:49:43.551Z,67.63
2023-01-11T13:52:32.724Z,67.82
2023-01-11T13:55:02.155Z,68.84
2023-01-11T13:57:56.112Z,68.68
2023-01-11T14:00:44.495Z,69.27
2023-01-11T14:03:21.181Z,69.65
2023-01-11T14:06:00.134Z,69.16
2023-01-11T14:08:49.400Z,69.50
2023-01-11T14:11:38.680Z,69.36
2023-01-11T14:14:37.357Z,69.94
2023-01-11T14:17:08.327Z,70.26
2023-01-11T14:20:00.496Z,70.05
2023-01-11T14:22:36.971Z,70.75
2023-01-11T14:25:18.371Z,70.74
2023-01-11T14:27:48.772Z,71.19
2023-01-11T14:30:22.466Z,71.71
2023-01-11T14:33:31.853Z,72.00
2023-01-11T14:36:11.964Z,71.56
2023-01-11T14:38:45.788Z,72.54
2023-01-11T14:41:40.986Z,72.55
2023-01-11T14:44:11.629Z,73.01
2023-01-11T14:46:42.172Z,73.03
2023-01-11T14:49:37.977Z,72.98
2023-01-11T14:52:14.050Z,72.75
2023-01-11T14:54:44.980Z,72.08
2023-01-11T14:57:31.393Z,72.35
2023-01-11T14:59:59.288Z,72.54
2023-01-11T15:02:28.631Z,72.35
2023-01-11T15:04:56.539Z,73.18
2023-01-11T15:07:29.759Z,72.69
2023-01-11T15:09:58.536Z,72.98
2023-01-11T15:12:45.936Z,73.50
2023-01-11T15:15:13.648Z,73.86
2023-01-11T15:17:59.763Z,74.21
2023-01-11T15:20:27.386Z,74.55
2023-01-11T15:22:56.938Z,74.59
2023-01-11T15:25:26.365Z,74.50
2023-01-11T15:27:54.242Z,74.79
2023-01-11T15:30:31.082Z,75.35
2023-01-11T15:33:17.213Z,75.12
2023-01-11T15:35:56.987Z,76.15
2023-01-11T15:38:38.116Z,77.23
2023-01-11T15:41:24.402Z,76.85
2023-01-11T15:44:24.772Z,76.74
2023-01-11T15:47:15.551Z,77.13
2023-01-11T15:50:17.933Z,76.68
2023-01-11T15:53:07.467Z,76.74
2023-01-11T15:55:54.499Z,76.42
2023-01-11T15:58:57.464Z,76.60
2023-01-11T16:01:26.700Z,76.29
2023-01-11T16:04:22.067Z,76.28
2023-01-11T16:06:54.433Z,76.57
2023-01-11T16:09:52.502Z,76.87
2023-01-11T16:12:57.568Z,76.52
2023-01-11T16:15:41.788Z,76.40
2023-01-11T16:18:13.649Z,76.47
2023-01-11T16:20:43.232Z,76.86
2023-01-11T16:23:18.053Z,76.56
2023-01-11T16:25:46.800Z,76.23
2023-01-11T16:28:16.649Z,76.36
2023-01-11T16:30:46.652Z,76.13
2023-01-11T16:33:26.662Z,76.50
2023-01-11T16:36:10.067Z,75.91
2023-01-11T16:38:44.610Z,75.86
2023-01-11T16:41:14.220Z,76.29
2023-01-11T16:43:59.768Z,76.31
2023-01-11T16:46:47.416Z,76.51
2023-01-11T16:49:18.459Z,76.70
2023-01-11T16:51:46.826Z,76.92
2023-01-11T16:54:29.030Z,76.56
2023-01-11T16:56:56.803Z,76.77
2023-01-11T16:59:29.354Z,77.20
2023-01-11T17:01:59.324Z,77.11
2023-01-11T17:04:33.987Z,76.67
2023-01-11T17:07:21.117Z,77.19
2023-01-11T17:09:52.250Z,77.30
2023-01-11T17:12:24.084Z,77.35
2023-01-11T17:15:31.633Z,76.99
2023-01-11T17:18:03.346Z,77.08
2023-01-11T17:20:31.836Z,77.14
2023-01-11T17:22:59.390Z,77.48
2023-01-11T17:25:41.083Z,77.67
2023-01-11T17:28:17.814Z,77.93
2023-01-11T17:30:46.122Z,78.29
2023-01-11T17:33:30.353Z,78.20
2023-01-11T17:35:58.084Z,78.55
2023-01-11T17:38:26.332Z,78.08
2023-01-11T17:40:56.767Z,78.08
2023-01-11T17:43:46.485Z,78.58
2023-01-11T17:46:23.347Z,78.58
2023-01-11T17:48:56.023Z,79.23
2023-01-11T17:51:31.675Z,79.21
2023-01-11T17:53:59.546Z,79.27
2023-01-11T17:56:33.071Z,79.15
2023-01-11T17:59:25.824Z,79.25
2023-01-11T18:01:57.958Z,79.51
2023-01-11T18:04:26.556Z,79.58
2023-01-11T18:06:55.635Z,79.31
2023-01-11T18:09:34.399Z,79.39
2023-01-11T18:12:05.211Z,79.46
2023-01-11T18:14:38.566Z,79.83
2023-01-11T18:17:27.177Z,79.67
2023-01-11T18:19:55.186Z,80.19
2023-01-11T18:22:28.019Z,80.64
2023-01-11T18:24:56.899Z,80.15
2023-01-11T18:27:28.559Z,80.25
2023-01-11T18:29:57.605Z,80.70
2023-01-11T18:32:25.344Z,80.70
2023-01-11T18:34:54.139Z,81.62
2023-01-11T18:37:21.980Z,80.87
2023-01-11T18:39:50.850Z,81.25
2023-01-11T18:42:20.483Z,81.08
2023-01-11T18:44:49.554Z,81.94
2023-01-11T18:47:25.345Z,81.50
2023-01-11T18:49:53.539Z,80.81
2023-01-11T18:52:24.741Z,81.10
2023-01-11T18:54:52.446Z,81.67
2023-01-11T18:57:20.568Z,81.63
2023-01-11T18:59:48.472Z,81.37
2023-01-11T19:02:25.142Z,81.80
2023-01-11T19:04:54.405Z,81.89
2023-01-11T19:07:23.185Z,81.74
2023-01-11T19:09:51.430Z,82.34
2023-01-11T19:12:19.906Z,82.10
2023-01-11T19:14:47.685Z,82.55
2023-01-11T19:17:15.531Z,82.03
2023-01-11T19:19:43.501Z,81.81
2023-01-11T19:22:11.722Z,82.55
2023-01-11T19:24:39.963Z,82.53
2023-01-11T19:27:07.667Z,82.32
2023-01-11T19:29:36.431Z,82.47
2023-01-11T19:32:04.152Z,82.89
2023-01-11T19:34:35.408Z,82.87
2023-01-11T19:37:03.091Z,82.51
2023-01-11T19:39:33.779Z,82.62
2023-01-11T19:42:03.119Z,82.19
2023-01-11T19:44:31.702Z,82.62
2023-01-11T19:47:14.944Z,82.71
2023-01-11T19:49:42.727Z,82.88
2023-01-11T19:52:14.233Z,82.78
2023-01-11T19:54:42.553Z,82.75
2023-01-11T19:57:11.621Z,82.96
2023-01-11T19:59:39.309Z,83.29
2023-01-11T20:02:07.297Z,83.00
2023-01-11T20:04:35.843Z,82.66
2023-01-11T20:07:03.895Z,82.63
2023-01-11T20:09:37.525Z,83.06
2023-01-11T20:12:06.463Z,83.13
2023-01-11T20:14:34.346Z,83.68
2023-01-11T20:17:02.406Z,83.67
2023-01-11T20:19:30.172Z,83.25
2023-01-11T20:21:57.872Z,83.43
2023-01-11T20:24:31.221Z,83.03
2023-01-11T20:27:00.187Z,83.35
2023-01-11T20:29:27.923Z,82.94
2023-01-11T20:31:58.213Z,82.43
2023-01-11T20:34:31.513Z,83.12
2023-01-11T20:36:59.108Z,83.53
2023-01-11T20:39:29.467Z,82.99
2023-01-11T20:41:57.437Z,82.81
2023-01-11T20:44:28.138Z,83.33
2023-01-11T20:46:56.362Z,83.48
2023-01-11T20:49:25.694Z,82.99
2023-01-11T20:51:53.415Z,83.73
2023-01-11T20:54:21.214Z,83.46
2023-01-11T20:56:49.347Z,83.88
2023-01-11T20:59:19.768Z,83.93
2023-01-11T21:01:48.729Z,83.13
2023-01-11T21:04:16.932Z,83.26
2023-01-11T21:06:45.965Z,83.32
2023-01-11T21:09:15.073Z,83.75
2023-01-11T21:11:42.910Z,83.26
2023-01-11T21:14:12.297Z,83.36
2023-01-11T21:16:41.187Z,83.37
2023-01-11T21:19:11.872Z,83.19
2023-01-11T21:21:39.458Z,83.14
2023-01-11T21:24:07.761Z,83.66
2023-01-11T21:26:35.988Z,83.89
2023-01-11T21:29:04.543Z,83.75
2023-01-11T21:31:34.375Z,84.20
2023-01-11T21:34:05.964Z,84.07
2023-01-11T21:36:34.545Z,83.78
2023-01-11T21:39:02.840Z,83.78
2023-01-11T21:41:51.823Z,83.96
2023-01-11T21:44:20.405Z,84.10
2023-01-11T21:46:48.198Z,83.37
2023-01-11T21:49:17.941Z,83.38
2023-01-11T21:51:45.823Z,83.60
2023-01-11T21:54:14.526Z,83.33
2023-01-11T21:56:43.483Z,83.62
2023-01-11T21:59:11.155Z,83.86
2023-01-11T22:01:39.453Z,84.43
2023-01-11T22:04:11.853Z,83.91
2023-01-11T22:20:40.901Z,82.98
2023-01-11T22:23:08.579Z,83.75
2023-01-11T22:25:36.653Z,83.83
2023-01-11T22:28:04.556Z,84.00
2023-01-11T22:31:03.985Z,83.26
2023-01-11T22:33:31.918Z,83.78
2023-01-11T22:35:59.462Z,83.70
2023-01-11T22:38:27.291Z,83.93
2023-01-11T22:40:54.815Z,83.90
2023-01-11T22:43:22.496Z,83.92
2023-01-11T22:46:12.945Z,83.71
2023-01-11T22:48:40.699Z,83.83
2023-01-11T22:51:08.941Z,83.06
2023-01-11T22:53:41.269Z,83.83
2023-01-11T22:56:09.223Z,83.48
2023-01-11T22:58:37.035Z,83.34
2023-01-11T23:02:00.963Z,83.25
2023-01-11T23:05:14.789Z,83.54
2023-01-11T23:07:43.828Z,84.06
2023-01-11T23:10:11.538Z,83.60
2023-01-11T23:12:58.079Z,83.48
2023-01-11T23:15:26.062Z,83.86
2023-01-11T23:17:53.711Z,84.01
2023-01-11T23:20:33.484Z,83.71
2023-01-11T23:23:01.129Z,83.36
2023-01-11T23:25:28.783Z,84.02
2023-01-11T23:27:56.684Z,84.30
2023-01-11T23:30:24.626Z,83.88
2023-01-11T23:32:52.349Z,83.71
2023-01-11T23:35:20.048Z,83.63
2023-01-11T23:37:48.599Z,84.07
2023-01-11T23:40:16.323Z,83.55
2023-01-11T23:42:44.274Z,83.78
2023-01-11T23:45:11.961Z,84.02
2023-01-11T23:47:39.697Z,83.77
2023-01-11T23:50:09.779Z,84.30
2023-01-11T23:52:37.653Z,83.58
2023-01-11T23:55:05.741Z,83.25
2023-01-11T23:57:35.943Z,83.77
